createdAt,value
2022-11-25T00:00:37.058Z,23.38
2022-11-25T00:03:10.970Z,23.90
2022-11-25T00:05:37.920Z,26.00
2022-11-25T00:08:04.968Z,20.63
2022-11-25T00:10:37.958Z,24.33
2022-11-25T00:13:04.991Z,24.10
2022-11-25T00:15:38.981Z,27.08
2022-11-25T00:18:12.957Z,22.90
2022-11-25T00:20:39.918Z,23.95
2022-11-25T00:23:13.178Z,24.40
2022-11-25T00:25:40.117Z,22.45
2022-11-25T00:28:13.976Z,24.30
2022-11-25T00:30:41.056Z,23.92
2022-11-25T00:33:08.169Z,23.85
2022-11-25T00:35:42.008Z,23.73
2022-11-25T00:38:08.980Z,25.27
2022-11-25T00:40:42.120Z,22.02
2022-11-25T00:43:15.936Z,23.35
2022-11-25T00:45:50.002Z,24.17
2022-11-25T00:48:17.022Z,24.10
2022-11-25T00:50:50.976Z,22.70
2022-11-25T00:53:25.003Z,24.33
2022-11-25T00:55:51.914Z,24.20
2022-11-25T00:58:24.963Z,23.50
2022-11-25T01:00:58.025Z,19.23
2022-11-25T01:03:31.960Z,19.80
2022-11-25T01:06:15.930Z,16.23
2022-11-25T01:08:42.969Z,19.13
2022-11-25T01:11:12.710Z,20.13
2022-11-25T01:13:46.005Z,17.48
2022-11-25T01:16:20.041Z,19.13
2022-11-25T01:18:53.980Z,16.73
2022-11-25T01:21:31.931Z,18.20
2022-11-25T01:24:03.945Z,15.60
2022-11-25T01:26:37.959Z,17.02
2022-11-25T01:29:14.010Z,15.30
2022-11-25T01:31:41.201Z,15.85
2022-11-25T01:34:23.024Z,14.65
2022-11-25T01:36:56.700Z,18.80
2022-11-25T01:39:33.057Z,16.58
2022-11-25T01:42:07.964Z,16.52
2022-11-25T01:44:36.009Z,18.67
2022-11-25T01:47:28.940Z,22.55
2022-11-25T01:50:06.473Z,16.17
2022-11-25T01:52:42.962Z,16.08
2022-11-25T01:55:26.260Z,16.73
2022-11-25T01:58:18.990Z,18.48
2022-11-25T02:00:46.169Z,16.70
2022-11-25T02:03:19.994Z,16.10
2022-11-25T02:05:59.132Z,14.05
2022-11-25T02:08:32.987Z,14.25
2022-11-25T02:11:01.160Z,13.40
2022-11-25T02:13:35.092Z,12.00
2022-11-25T02:16:02.238Z,14.15
2022-11-25T02:18:29.286Z,12.35
2022-11-25T02:21:03.007Z,10.07
2022-11-25T02:24:21.027Z,14.90
2022-11-25T02:26:48.129Z,15.20
2022-11-25T02:29:21.980Z,12.48
2022-11-25T02:31:50.388Z,13.35
2022-11-25T02:34:23.982Z,12.77
2022-11-25T02:36:50.940Z,11.80
2022-11-25T02:39:23.997Z,13.65
2022-11-25T02:42:00.985Z,12.88
2022-11-25T02:44:27.997Z,12.43
2022-11-25T02:46:54.985Z,15.10
2022-11-25T02:49:28.012Z,11.48
2022-11-25T02:52:01.081Z,16.15
2022-11-25T02:54:28.056Z,12.27
2022-11-25T02:57:01.048Z,13.80
2022-11-25T02:59:28.024Z,12.55
2022-11-25T03:02:01.096Z,13.23
2022-11-25T03:04:28.149Z,13.95
2022-11-25T03:07:01.986Z,12.98
2022-11-25T03:09:28.999Z,11.60
2022-11-25T03:11:55.954Z,10.70
2022-11-25T03:14:29.084Z,10.05
2022-11-25T03:16:56.170Z,13.35
2022-11-25T03:19:30.072Z,13.93
2022-11-25T03:22:02.982Z,12.52
2022-11-25T03:24:30.074Z,15.35
2022-11-25T03:26:57.092Z,17.25
2022-11-25T03:29:30.014Z,21.92
2022-11-25T03:32:06.795Z,18.65
2022-11-25T03:34:36.656Z,23.67
2022-11-25T03:37:10.090Z,27.45
2022-11-25T03:39:37.082Z,27.05
2022-11-25T03:42:04.173Z,25.58
2022-11-25T03:44:38.251Z,28.42
2022-11-25T03:47:05.380Z,23.13
2022-11-25T03:49:39.050Z,31.50
2022-11-25T03:52:05.987Z,29.48
2022-11-25T03:54:39.157Z,23.48
2022-11-25T03:57:06.248Z,21.25
2022-11-25T03:59:40.042Z,24.00
2022-11-25T04:02:07.001Z,22.10
2022-11-25T04:04:34.252Z,18.65
2022-11-25T04:07:08.062Z,20.92
2022-11-25T04:09:40.995Z,17.02
2022-11-25T04:12:16.015Z,14.73
2022-11-25T04:14:42.995Z,17.05
2022-11-25T04:17:16.123Z,12.15
2022-11-25T04:19:43.082Z,10.13
2022-11-25T04:22:17.085Z,11.50
2022-11-25T04:24:51.061Z,10.02
2022-11-25T04:27:24.012Z,12.15
2022-11-25T04:29:50.964Z,8.10
2022-11-25T04:32:24.030Z,9.68
2022-11-25T04:34:50.974Z,15.18
2022-11-25T04:37:24.097Z,13.75
2022-11-25T04:39:58.057Z,11.63
2022-11-25T04:42:31.148Z,14.32
2022-11-25T04:45:21.303Z,11.40
2022-11-25T04:47:53.036Z,11.90
2022-11-25T04:50:22.156Z,11.32
2022-11-25T04:52:49.245Z,20.05
2022-11-25T04:55:23.045Z,22.38
2022-11-25T04:57:50.056Z,17.13
2022-11-25T05:00:24.060Z,11.63
2022-11-25T05:02:51.097Z,9.65
2022-11-25T05:05:25.060Z,9.32
2022-11-25T05:07:52.154Z,8.40
2022-11-25T05:10:26.159Z,9.23
2022-11-25T05:12:53.216Z,8.68
2022-11-25T05:15:27.159Z,7.05
2022-11-25T05:17:54.084Z,6.00
2022-11-25T05:20:27.161Z,7.90
2022-11-25T05:22:54.168Z,7.82
2022-11-25T05:25:21.043Z,6.65
2022-11-25T05:27:54.118Z,8.68
2022-11-25T05:30:21.014Z,8.73
2022-11-25T05:32:54.155Z,31.80
2022-11-25T05:35:28.094Z,15.30
2022-11-25T05:37:55.064Z,11.02
2022-11-25T05:40:21.996Z,8.50
2022-11-25T05:42:55.115Z,6.22
2022-11-25T05:45:22.160Z,6.90
2022-11-25T05:47:49.208Z,7.35
2022-11-25T05:50:23.118Z,6.20
2022-11-25T05:52:56.118Z,9.20
2022-11-25T05:55:23.078Z,7.50
2022-11-25T05:57:50.057Z,6.60
2022-11-25T06:00:26.795Z,8.00
2022-11-25T06:02:54.100Z,8.77
2022-11-25T06:05:21.291Z,6.60
2022-11-25T06:07:55.243Z,7.22
2022-11-25T06:10:22.200Z,5.97
2022-11-25T06:12:56.098Z,7.70
2022-11-25T06:15:29.104Z,6.47
2022-11-25T06:17:56.175Z,6.43
2022-11-25T06:20:30.120Z,7.05
2022-11-25T06:22:58.433Z,8.30
2022-11-25T06:25:32.123Z,7.03
2022-11-25T06:28:12.397Z,8.27
2022-11-25T06:30:46.131Z,5.57
2022-11-25T06:33:19.080Z,8.30
2022-11-25T06:35:52.080Z,6.55
2022-11-25T06:38:19.000Z,6.28
2022-11-25T06:40:54.119Z,6.18
2022-11-25T06:43:30.095Z,13.13
2022-11-25T06:46:03.376Z,9.43
2022-11-25T06:48:37.092Z,9.43
2022-11-25T06:51:06.714Z,10.52
2022-11-25T06:53:34.019Z,10.15
2022-11-25T06:56:27.116Z,11.80
2022-11-25T06:58:54.702Z,13.77
2022-11-25T07:01:33.124Z,12.48
2022-11-25T07:04:02.570Z,14.25
2022-11-25T07:06:29.914Z,13.90
2022-11-25T07:09:03.095Z,16.90
2022-11-25T07:11:39.133Z,13.98
2022-11-25T07:14:09.872Z,11.25
2022-11-25T07:16:45.153Z,14.30
2022-11-25T07:19:20.085Z,11.52
2022-11-25T07:21:46.965Z,10.00
2022-11-25T07:24:22.143Z,10.00
2022-11-25T07:26:49.007Z,11.63
2022-11-25T07:32:10.907Z,11.57
2022-11-25T07:34:38.200Z,8.75
2022-11-25T07:37:18.162Z,9.63
2022-11-25T07:39:45.045Z,8.88
2022-11-25T07:42:18.164Z,10.40
2022-11-25T07:44:45.003Z,10.07
2022-11-25T07:47:18.140Z,7.70
2022-11-25T07:49:44.998Z,9.65
2022-11-25T07:52:18.147Z,8.85
2022-11-25T07:54:52.139Z,9.23
2022-11-25T07:57:19.007Z,9.60
2022-11-25T07:59:45.895Z,10.45
2022-11-25T08:02:19.137Z,7.50
2022-11-25T08:04:46.021Z,8.38
2022-11-25T08:07:19.179Z,7.72
2022-11-25T08:09:46.108Z,6.97
2022-11-25T08:12:19.159Z,6.50
2022-11-25T08:14:52.106Z,6.13
2022-11-25T08:17:18.968Z,6.70
2022-11-25T08:19:52.122Z,8.68
2022-11-25T08:22:19.078Z,8.75
2022-11-25T08:24:52.113Z,9.55
2022-11-25T08:27:19.036Z,12.55
2022-11-25T08:29:52.169Z,7.75
2022-11-25T08:32:19.121Z,9.43
2022-11-25T08:34:52.183Z,8.02
2022-11-25T08:37:26.212Z,8.50
2022-11-25T08:39:53.848Z,9.00
2022-11-25T08:42:29.141Z,7.45
2022-11-25T08:44:56.288Z,7.45
2022-11-25T08:47:30.105Z,6.78
2022-11-25T08:50:03.223Z,9.23
2022-11-25T08:52:36.122Z,6.85
2022-11-25T08:55:02.973Z,7.60
2022-11-25T08:57:29.890Z,6.03
2022-11-25T09:00:03.134Z,6.75
2022-11-25T09:02:30.040Z,6.00
2022-11-25T09:04:56.953Z,4.95
2022-11-25T09:07:31.013Z,6.50
2022-11-25T09:09:58.425Z,8.50
2022-11-25T09:12:32.172Z,9.75
2022-11-25T09:14:59.049Z,8.50
2022-11-25T09:17:32.210Z,9.48
2022-11-25T09:19:59.121Z,9.50
2022-11-25T09:22:32.201Z,8.52
2022-11-25T09:24:59.129Z,10.20
2022-11-25T09:27:32.160Z,11.55
2022-11-25T09:29:59.096Z,12.57
2022-11-25T09:32:25.993Z,16.48
2022-11-25T09:34:59.375Z,11.77
2022-11-25T09:37:33.214Z,9.82
2022-11-25T09:40:00.139Z,9.95
2022-11-25T09:42:47.161Z,12.73
2022-11-25T09:45:29.190Z,14.75
2022-11-25T09:48:30.125Z,13.98
2022-11-25T09:51:15.156Z,12.05
2022-11-25T09:53:48.070Z,11.15
2022-11-25T09:56:36.211Z,12.18
2022-11-25T09:59:27.021Z,18.67
2022-11-25T10:02:05.251Z,20.75
2022-11-25T10:04:40.801Z,19.85
2022-11-25T10:07:21.219Z,20.83
2022-11-25T10:09:48.135Z,17.23
2022-11-25T10:12:40.230Z,17.20
2022-11-25T10:15:15.634Z,23.38
2022-11-25T10:17:56.160Z,21.70
2022-11-25T10:20:25.908Z,21.27
2022-11-25T10:23:03.214Z,21.33
2022-11-25T10:25:46.224Z,18.52
2022-11-25T10:28:31.027Z,20.92
2022-11-25T10:31:26.249Z,22.05
2022-11-25T10:34:04.196Z,19.30
2022-11-25T10:36:43.262Z,18.58
2022-11-25T10:39:30.246Z,24.88
2022-11-25T10:42:11.915Z,26.92
2022-11-25T10:44:47.281Z,25.98
2022-11-25T10:47:40.256Z,20.27
2022-11-25T10:50:37.362Z,19.08
2022-11-25T10:53:21.269Z,20.80
2022-11-25T10:56:20.906Z,21.25
2022-11-25T10:58:54.279Z,19.20
2022-11-25T11:01:22.835Z,17.13
2022-11-25T11:04:17.247Z,17.50
2022-11-25T11:06:54.240Z,18.38
2022-11-25T11:09:47.234Z,18.58
2022-11-25T11:12:29.040Z,17.73
2022-11-25T11:15:31.264Z,16.15
2022-11-25T11:18:00.580Z,20.13
2022-11-25T11:20:36.231Z,18.75
2022-11-25T11:23:10.014Z,22.10
2022-11-25T11:25:48.255Z,18.83
2022-11-25T11:28:28.380Z,16.98
2022-11-25T11:31:30.304Z,18.75
2022-11-25T11:34:33.837Z,21.63
2022-11-25T11:37:31.313Z,25.25
2022-11-25T11:40:19.737Z,22.88
2022-11-25T11:43:12.255Z,21.33
2022-11-25T11:46:16.302Z,21.42
2022-11-25T11:49:11.247Z,23.17
2022-11-25T11:52:06.232Z,22.63
2022-11-25T11:54:46.671Z,18.40
2022-11-25T11:58:03.273Z,22.48
2022-11-25T12:00:32.160Z,23.30
2022-11-25T12:03:20.314Z,22.33
2022-11-25T12:05:47.246Z,22.85
2022-11-25T12:08:48.266Z,24.60
2022-11-25T12:11:30.065Z,27.02
2022-11-25T12:14:11.295Z,26.92
2022-11-25T12:16:55.247Z,23.55
2022-11-25T12:19:54.238Z,25.38
2022-11-25T12:22:32.243Z,25.27
2022-11-25T12:25:08.306Z,23.60
2022-11-25T12:27:44.918Z,24.98
2022-11-25T12:30:29.281Z,23.42
2022-11-25T12:33:31.304Z,24.90
2022-11-25T12:36:15.294Z,25.70
2022-11-25T12:38:50.980Z,25.20
2022-11-25T12:42:00.254Z,26.83
2022-11-25T12:45:17.250Z,25.35
2022-11-25T12:47:51.253Z,26.25
2022-11-25T12:51:02.777Z,23.27
2022-11-25T12:54:09.285Z,26.67
2022-11-25T12:56:50.990Z,23.67
2022-11-25T12:59:43.317Z,25.05
2022-11-25T13:02:28.384Z,24.83
2022-11-25T13:05:40.690Z,24.08
2022-11-25T13:08:54.310Z,20.48
2022-11-25T13:11:48.685Z,24.23
2022-11-25T13:14:53.269Z,25.83
2022-11-25T13:17:27.548Z,22.58
2022-11-25T13:20:28.874Z,24.65
2022-11-25T13:23:11.325Z,23.27
2022-11-25T13:25:43.647Z,25.35
2022-11-25T13:28:39.377Z,24.13
2022-11-25T13:31:25.183Z,22.00
2022-11-25T13:34:27.372Z,23.70
2022-11-25T13:36:59.003Z,21.08
2022-11-25T13:39:41.338Z,21.17
2022-11-25T13:42:26.350Z,24.02
2022-11-25T13:45:00.293Z,23.50
2022-11-25T13:47:48.526Z,23.05
2022-11-25T13:50:22.687Z,25.70
2022-11-25T13:53:05.376Z,24.75
2022-11-25T13:55:46.328Z,25.17
2022-11-25T13:58:19.346Z,25.58
2022-11-25T14:00:57.322Z,21.42
2022-11-25T14:03:24.204Z,23.17
2022-11-25T14:06:06.354Z,22.83
2022-11-25T14:08:42.526Z,20.20
2022-11-25T14:12:09.366Z,23.15
2022-11-25T14:14:49.637Z,24.02
2022-11-25T14:17:55.242Z,22.95
2022-11-25T14:20:52.384Z,21.90
2022-11-25T14:23:57.277Z,24.75
2022-11-25T14:26:49.304Z,25.25
2022-11-25T14:29:40.309Z,24.40
2022-11-25T14:32:32.338Z,22.23
2022-11-25T14:35:16.863Z,19.52
2022-11-25T14:37:59.383Z,25.05
2022-11-25T14:41:04.405Z,26.13
2022-11-25T14:43:31.345Z,26.30
2022-11-25T14:46:21.476Z,24.08
2022-11-25T14:48:57.297Z,19.70
2022-11-25T14:51:32.373Z,25.02
2022-11-25T14:53:59.277Z,27.88
2022-11-25T14:56:31.756Z,24.30
2022-11-25T14:59:05.432Z,25.48
2022-11-25T15:01:34.372Z,26.92
2022-11-25T15:04:22.466Z,24.17
2022-11-25T15:07:04.341Z,27.25
2022-11-25T15:09:37.465Z,27.55
2022-11-25T15:12:13.374Z,24.38
2022-11-25T15:14:57.406Z,25.00
2022-11-25T15:17:38.371Z,26.13
2022-11-25T15:20:15.214Z,27.65
2022-11-25T15:22:58.349Z,24.00
2022-11-25T15:25:31.357Z,29.95
2022-11-25T15:28:04.387Z,35.67
2022-11-25T15:30:37.372Z,25.90
2022-11-25T15:33:10.418Z,29.40
2022-11-25T15:35:37.376Z,30.20
2022-11-25T15:38:52.409Z,31.92
2022-11-25T15:41:34.761Z,36.22
2022-11-25T15:44:10.352Z,35.28
2022-11-25T15:46:37.239Z,36.42
2022-11-25T15:49:13.377Z,38.95
2022-11-25T15:51:43.450Z,34.38
2022-11-25T15:54:13.214Z,32.30
2022-11-25T15:56:51.711Z,37.45
2022-11-25T16:00:02.399Z,36.83
2022-11-25T16:02:36.540Z,48.47
2022-11-25T16:05:19.434Z,37.60
2022-11-25T16:07:52.524Z,39.65
2022-11-25T16:10:55.420Z,33.45
2022-11-25T16:13:22.951Z,76.88
2022-11-25T16:15:58.439Z,104.35
2022-11-25T16:19:04.191Z,134.02
2022-11-25T16:22:00.462Z,93.75
2022-11-25T16:25:02.384Z,79.03
2022-11-25T16:27:36.468Z,68.20
2022-11-25T16:30:06.426Z,68.13
2022-11-25T16:32:40.437Z,64.82
2022-11-25T16:35:23.389Z,51.13
2022-11-25T16:37:50.349Z,43.95
2022-11-25T16:40:18.006Z,34.80
2022-11-25T16:42:54.397Z,32.97
2022-11-25T16:45:26.629Z,29.25
2022-11-25T16:48:00.412Z,29.48
2022-11-25T16:50:33.445Z,26.70
2022-11-25T16:53:06.451Z,29.58
2022-11-25T16:55:39.413Z,33.75
2022-11-25T16:58:21.436Z,28.42
2022-11-25T17:00:57.517Z,30.05
2022-11-25T17:03:31.435Z,34.60
2022-11-25T17:05:58.344Z,42.28
2022-11-25T17:08:31.531Z,54.72
2022-11-25T17:10:58.456Z,66.22
2022-11-25T17:13:31.486Z,66.00
2022-11-25T17:16:04.538Z,72.45
2022-11-25T17:18:31.644Z,73.55
2022-11-25T17:21:05.448Z,68.68
2022-11-25T17:23:32.356Z,63.45
2022-11-25T17:26:05.421Z,48.22
2022-11-25T17:28:32.346Z,46.13
2022-11-25T17:30:59.352Z,42.67
2022-11-25T17:33:32.446Z,47.83
2022-11-25T17:36:05.449Z,44.30
2022-11-25T17:38:32.489Z,34.83
2022-11-25T17:41:05.523Z,29.42
2022-11-25T17:43:34.753Z,32.13
2022-11-25T17:46:08.535Z,32.20
2022-11-25T17:48:35.531Z,35.35
2022-11-25T17:51:08.489Z,43.05
2022-11-25T17:53:36.008Z,30.90
2022-11-25T17:56:09.444Z,30.45
2022-11-25T17:58:36.342Z,29.98
2022-11-25T18:01:09.555Z,29.85
2022-11-25T18:03:36.627Z,29.65
2022-11-25T18:06:10.494Z,31.40
2022-11-25T18:08:37.478Z,32.78
2022-11-25T18:11:12.483Z,35.38
2022-11-25T18:13:46.459Z,36.00
2022-11-25T18:16:26.539Z,47.08
2022-11-25T18:18:53.499Z,50.88
2022-11-25T18:21:26.524Z,41.65
2022-11-25T18:23:53.887Z,37.25
2022-11-25T18:26:20.867Z,32.03
2022-11-25T18:28:54.504Z,32.70
2022-11-25T18:31:27.374Z,35.28
2022-11-25T18:34:00.751Z,33.72
2022-11-25T18:36:27.721Z,28.15
2022-11-25T18:39:08.456Z,28.77
2022-11-25T18:41:35.316Z,30.77
2022-11-25T18:44:02.310Z,31.30
2022-11-25T18:46:38.556Z,32.33
2022-11-25T18:49:19.463Z,34.78
2022-11-25T18:51:53.241Z,30.08
2022-11-25T18:54:26.529Z,28.38
2022-11-25T18:56:53.465Z,29.35
2022-11-25T18:59:40.549Z,27.73
2022-11-25T19:02:23.282Z,32.08
2022-11-25T19:04:56.564Z,31.10
2022-11-25T19:07:30.565Z,34.80
2022-11-25T19:09:57.559Z,36.67
2022-11-25T19:12:24.645Z,38.22
2022-11-25T19:14:58.649Z,39.10
2022-11-25T19:17:32.553Z,46.63
2022-11-25T19:20:05.584Z,46.00
2022-11-25T19:22:39.541Z,39.33
2022-11-25T19:25:06.586Z,35.30
2022-11-25T19:27:34.941Z,40.50
2022-11-25T19:30:08.505Z,38.33
2022-11-25T19:32:41.585Z,35.47
2022-11-25T19:35:17.567Z,34.88
2022-11-25T19:37:44.657Z,36.60
2022-11-25T19:40:22.561Z,35.63
2022-11-25T19:42:55.509Z,41.15
2022-11-25T19:45:22.507Z,38.08
2022-11-25T19:47:57.549Z,38.08
2022-11-25T19:50:26.769Z,35.70
2022-11-25T19:52:53.765Z,33.38
2022-11-25T19:55:32.545Z,34.95
2022-11-25T19:58:05.547Z,38.33
2022-11-25T20:00:38.585Z,36.97
2022-11-25T20:03:20.624Z,38.58
2022-11-25T20:05:54.561Z,39.30
2022-11-25T20:08:29.521Z,36.50
2022-11-25T20:11:03.541Z,39.35
2022-11-25T20:13:30.438Z,36.00
2022-11-25T20:16:04.639Z,34.65
2022-11-25T20:18:31.635Z,39.28
2022-11-25T20:21:09.600Z,35.85
2022-11-25T20:23:45.587Z,37.33
2022-11-25T20:26:40.924Z,40.20
2022-11-25T20:29:30.400Z,33.55
2022-11-25T20:31:57.930Z,37.28
2022-11-25T20:34:31.635Z,38.30
2022-11-25T20:37:08.611Z,35.50
2022-11-25T20:39:42.549Z,38.97
2022-11-25T20:42:11.577Z,45.70
2022-11-25T20:44:38.825Z,45.55
2022-11-25T20:47:23.608Z,43.17
2022-11-25T20:49:50.638Z,47.38
2022-11-25T20:52:39.677Z,43.10
2022-11-25T20:55:30.628Z,42.97
2022-11-25T20:57:57.665Z,38.50
2022-11-25T21:00:33.530Z,40.75
2022-11-25T21:03:00.426Z,42.90
2022-11-25T21:05:33.585Z,44.30
2022-11-25T21:08:00.613Z,42.15
2022-11-25T21:10:37.628Z,39.90
2022-11-25T21:13:08.707Z,34.80
2022-11-25T21:15:42.563Z,41.53
2022-11-25T21:18:09.634Z,35.55
2022-11-25T21:20:37.047Z,32.38
2022-11-25T21:23:10.599Z,39.90
2022-11-25T21:25:37.560Z,39.63
2022-11-25T21:28:04.733Z,45.85
2022-11-25T21:30:38.561Z,44.85
2022-11-25T21:33:06.133Z,48.42
2022-11-25T21:35:40.571Z,50.92
2022-11-25T21:38:22.591Z,48.28
2022-11-25T21:40:58.523Z,50.50
2022-11-25T21:43:31.835Z,45.55
2022-11-25T21:46:13.639Z,48.85
2022-11-25T21:48:40.676Z,46.35
2022-11-25T21:51:19.597Z,44.60
2022-11-25T21:53:46.497Z,45.08
2022-11-25T21:56:26.633Z,49.05
2022-11-25T21:58:53.783Z,46.05
2022-11-25T22:01:28.702Z,43.75
2022-11-25T22:03:55.651Z,39.75
2022-11-25T22:06:31.623Z,40.65
2022-11-25T22:08:58.623Z,38.78
2022-11-25T22:11:40.596Z,43.40
2022-11-25T22:14:25.391Z,48.22
2022-11-25T22:16:58.595Z,55.55
2022-11-25T22:19:26.403Z,54.47
2022-11-25T22:21:59.666Z,51.60
2022-11-25T22:24:26.585Z,47.50
2022-11-25T22:26:59.598Z,51.80
2022-11-25T22:29:38.593Z,53.42
2022-11-25T22:32:12.901Z,48.13
2022-11-25T22:34:40.115Z,51.90
2022-11-25T22:37:31.619Z,44.70
2022-11-25T22:39:58.527Z,44.30
2022-11-25T22:42:34.573Z,49.58
2022-11-25T22:45:03.230Z,51.85
2022-11-25T22:47:50.657Z,46.35
2022-11-25T22:50:28.623Z,50.53
2022-11-25T22:53:02.611Z,57.78
2022-11-25T22:55:38.580Z,53.40
2022-11-25T22:58:11.613Z,52.05
2022-11-25T23:00:41.859Z,58.47
2022-11-25T23:03:40.620Z,54.10
2022-11-25T23:06:19.609Z,54.40
2022-11-25T23:08:52.626Z,58.20
2022-11-25T23:11:26.614Z,57.42
2022-11-25T23:13:53.553Z,60.22
2022-11-25T23:16:26.640Z,54.22
2022-11-25T23:18:53.657Z,55.22
2022-11-25T23:21:29.580Z,53.33
2022-11-25T23:23:56.610Z,51.40
2022-11-25T23:26:34.890Z,47.28
2022-11-25T23:29:02.078Z,44.40
2022-11-25T23:31:35.672Z,44.78
2022-11-25T23:34:09.763Z,50.00
2022-11-25T23:36:45.365Z,46.78
2022-11-25T23:39:27.562Z,43.97
2022-11-25T23:41:54.571Z,42.70
2022-11-25T23:44:35.773Z,41.35
2022-11-25T23:47:04.937Z,45.20
2022-11-25T23:49:44.592Z,39.78
2022-11-25T23:52:23.034Z,39.00
2022-11-25T23:54:56.641Z,37.67
2022-11-25T23:57:29.865Z,44.83
